This is the latest recevied weather packets stored in our database for station/object K3MV-13. If no packets are shown the sender has not sent any weather packets the latest 1 day(s).
| Time | Temp. | Humidity | Pressure | Rain* | Wind** | Luminosity | Snow |
|---|---|---|---|---|---|---|---|
| 1778021038 | 20.56° C | 43% | 1010 hPa | 0 mm | 0.45 m/s, 189° | 72 W/m² | - |
| 1778020735 | 20.56° C | 41% | 1010.1 hPa | 0 mm | 1.79 m/s, 232° | 95 W/m² | - |
| 1778020432 | 20.56° C | 41% | 1010 hPa | 0 mm | 0.89 m/s, 104° | 103 W/m² | - |
| 1778020128 | 20.56° C | 41% | 1010 hPa | 0 mm | 1.79 m/s, 201° | 87 W/m² | - |
| 1778019824 | 20.56° C | 45% | 1010 hPa | 0 mm | 0.89 m/s, 224° | 103 W/m² | - |
| 1778019521 | 21.11° C | 45% | 1010.1 hPa | 0 mm | 0.89 m/s, 229° | 109 W/m² | - |
| 1778019218 | 21.11° C | 44% | 1010.3 hPa | 0 mm | 1.79 m/s, 173° | 117 W/m² | - |
| 1778018915 | 21.11° C | 43% | 1010.3 hPa | 0 mm | 2.24 m/s, 215° | 121 W/m² | - |
| 1778018612 | 21.11° C | 43% | 1010.3 hPa | 0 mm | 1.34 m/s, 217° | 151 W/m² | - |
| 1778018310 | 21.11° C | 44% | 1010.1 hPa | 0 mm | 0.89 m/s, 233° | 154 W/m² | - |
| 1778018008 | 21.11° C | 43% | 1010 hPa | 0 mm | 1.79 m/s, 244° | 138 W/m² | - |
| 1778017706 | 21.11° C | 43% | 1010.3 hPa | 0 mm | 2.24 m/s, 261° | 153 W/m² | - |
| 1778017403 | 21.11° C | 43% | 1010.1 hPa | 0 mm | 1.79 m/s, 191° | 162 W/m² | - |
| 1778017100 | 21.11° C | 42% | 1010.1 hPa | 0 mm | 1.79 m/s, 184° | 149 W/m² | - |
| 1778016798 | 21.11° C | 44% | 1010.1 hPa | 0 mm | 0.89 m/s, 216° | 153 W/m² | - |
| 1778016493 | 21.11° C | 44% | 1010 hPa | 0 mm | 0.89 m/s, 203° | 156 W/m² | - |
| 1778016191 | 21.11° C | 43% | 1009.9 hPa | 0 mm | 2.24 m/s, 186° | 159 W/m² | - |
| 1778015887 | 21.11° C | 42% | 1009.9 hPa | 0 mm | 1.34 m/s, 220° | 157 W/m² | - |
| 1778015585 | 21.11° C | 44% | 1009.9 hPa | 0 mm | 0.89 m/s, 165° | 147 W/m² | - |
| 1778015281 | 21.11° C | 42% | 1009.9 hPa | 0 mm | 2.68 m/s, 230° | 143 W/m² | - |
| 1778014978 | 21.67° C | 43% | 1009.7 hPa | 0 mm | 1.34 m/s, 271° | 148 W/m² | - |
| 1778014675 | 21.67° C | 42% | 1009.8 hPa | 0 mm | 2.68 m/s, 249° | 166 W/m² | - |
| 1778014373 | 21.67° C | 42% | 1009.8 hPa | 0 mm | 3.13 m/s, 195° | 191 W/m² | - |
| 1778014069 | 21.67° C | 42% | 1009.9 hPa | 0 mm | 1.79 m/s, 195° | 196 W/m² | - |
| 1778013768 | 22.22° C | 40% | 1009.8 hPa | 0 mm | 4.02 m/s, 228° | 191 W/m² | - |
* Rain latest hour (hover to see other rain measurements)
** Current wind speed in m/s (hover to see current wind gust speed)